• Join FlightAware (Why Join?)
  • Login
  • US Flag 
05:16AM EDT


 

Airport Tracker/Info


-or-


 

Live Flight TrackerFlight Track Log ✈ UAL651 ✈ 22-May-2013 ✈ KEWR - KSFO

Flight Track Log - Related Links

Times and Time Zones

All times are in EDT time to prevent confusion due to time zone crossing. See the UAL651 flight status page for this flight to view local times or setup timezone preferences in your user account.

Time Position Orientation Groundspeed Altitude Reporting Facility
EDT Latitude Longitude Course Direction KTS MPH feet Rate Location/Type
10:36PM 40.6333 -74.1833 270° West 174 200 2,200  Level New York TRACON
10:37PM 40.6000 -74.2167 217° Southwest 247 284 4,000 2,220 Climbing New York TRACON
10:38PM 40.6333 -74.3000 298° West 277 319 6,700 2,700 Climbing New York TRACON
10:39PM 40.7522 -74.7287 276° West  Level FlightAware Approximate
10:39PM 40.6500 -74.4000 282° West 282 325 9,400  Level New York TRACON
10:40PM 40.7635 -74.8751 276° West  Level FlightAware Approximate
10:41PM 40.7833 -75.0154 270° West  Level FlightAware Approximate
10:42PM 40.7833 -75.1514 270° West  Level FlightAware Approximate
10:42PM 40.7800 -74.5639 316° Northwest 288 331 16,000  Level New York Center
10:43PM 40.7639 -74.6672 258° West 269 310 17,600 1,500 Climbing New York Center
10:44PM 40.7389 -74.7917 255° West 298 343 19,000 1,740 Climbing New York Center
10:45PM 40.7044 -74.9428 253° West 346 398 21,100 1,980 Climbing New York Center
10:46PM 40.6775 -75.0617 253° West 377 434 23,000 1,560 Climbing New York Center
10:47PM 40.6450 -75.2019 253° West 391 450 24,300 1,260 Climbing New York Center
10:48PM 40.6125 -75.3447 253° West 396 456 25,600 1,260 Climbing New York Center
10:49PM 40.5800 -75.4872 253° West 407 468 26,900 1,200 Climbing New York Center
10:50PM 40.5489 -75.6353 255° West 418 481 28,100 1,080 Climbing New York Center
10:51PM 40.5114 -75.7831 252° West 418 481 29,100 840 Climbing New York Center
10:52PM 40.4689 -75.9489 251° West 438 504 29,800 900 Climbing New York Center
10:53PM 40.4328 -76.1044 253° West 443 510 31,000 1,080 Climbing New York Center
10:54PM 40.3964 -76.2625 253° West 448 516 32,000 1,200 Climbing New York Center
10:55PM 40.3619 -76.4150 254° West 453 521 33,400 960 Climbing New York Center
10:56PM 40.3153 -76.5636 248° West 448 516 34,000 300 Climbing New York Center
10:57PM 40.2656 -76.6847 242° Southwest 441 507 34,000  Level New York Center
10:58PM 40.2103 -76.8267 243° Southwest 435 501 34,000  Level New York Center
10:59PM 40.1533 -76.9603 241° Southwest 435 501 34,000  Level New York Center
11:00PM 40.0933 -77.1097 242° Southwest 435 501 34,000  Level New York Center
11:01PM 40.0561 -77.2583 252° West 435 501 34,000  Level New York Center
11:03PM 40.0606 -77.5694 271° West 425 489 34,000 -60 Level Cleveland Center
11:04PM 40.0606 -77.7294 270° West 425 489 33,900 60 Descending Cleveland Center
11:05PM 40.0772 -77.8942 278° West 442 509 34,200 540 Climbing Cleveland Center
11:06PM 40.0933 -78.0564 277° West 449 517 35,000 900 Climbing Cleveland Center
11:07PM 40.1114 -78.2131 279° West 454 522 36,000 480 Climbing Cleveland Center
11:08PM 40.1311 -78.3700 279° West 448 516 36,000  Level Cleveland Center
11:09PM 40.1486 -78.5242 278° West 443 510 36,000  Level Cleveland Center
11:10PM 40.1681 -78.6811 279° West 443 510 36,000  Level Cleveland Center
11:11PM 40.1850 -78.8356 278° West 443 510 36,000  Level Cleveland Center
11:12PM 40.2042 -78.9928 279° West 443 510 36,000  Level Cleveland Center
11:13PM 40.2208 -79.1528 278° West 443 510 36,000  Level Cleveland Center
11:14PM 40.2394 -79.3075 279° West 443 510 36,000  Level Cleveland Center
11:15PM 40.2597 -79.4594 280° West 438 504 36,000 -60 Level Cleveland Center
11:16PM 40.2756 -79.6117 278° West 438 504 35,900  Descending Cleveland Center
11:17PM 40.2914 -79.7664 278° West 433 498 36,000  Climbing Cleveland Center
11:18PM 40.3092 -79.9214 279° West 433 498 36,000  Level Cleveland Center
11:19PM 40.3225 -80.0794 276° West 435 501 36,100  Climbing Cleveland Center
11:20PM 40.3375 -80.2317 277° West 435 501 36,000 -60 Descending Cleveland Center
11:21PM 40.3567 -80.3678 281° West 435 501 36,000  Level Cleveland Center
11:22PM 40.3714 -80.5231 277° West 425 489 36,000  Level Cleveland Center
11:23PM 40.3861 -80.6731 277° West 425 489 36,000  Level Cleveland Center
11:24PM 40.4006 -80.8231 277° West 425 489 36,000  Level Cleveland Center
11:26PM 40.4344 -81.1928 277° West 425 489 36,000  Level Indianapolis Center
11:27PM 40.4483 -81.3458 277° West 420 483 36,000  Level Indianapolis Center
11:28PM 40.4636 -81.5022 277° West 423 487 36,000  Level Indianapolis Center
11:29PM 40.4761 -81.6572 276° West 423 487 36,000  Level Indianapolis Center
11:30PM 40.4906 -81.8122 277° West 424 488 36,000  Level Indianapolis Center
11:31PM 40.5069 -81.9903 277° West 417 480 36,000  Level Indianapolis Center
11:32PM 40.5206 -82.1442 277° West 417 480 36,000  Level Indianapolis Center
11:33PM 40.5328 -82.2967 276° West 416 479 36,000  Level Indianapolis Center
11:34PM 40.5464 -82.4489 277° West 415 478 36,000  Level Indianapolis Center
11:35PM 40.5608 -82.6258 276° West 413 475 36,000  Level Indianapolis Center
11:36PM 40.5728 -82.7764 276° West 412 474 36,000  Level Indianapolis Center
11:37PM 40.5850 -82.9261 276° West 410 472 36,000  Level Indianapolis Center
11:39PM 40.5961 -83.0781 276° West 414 476 36,000  Level Indianapolis Center
11:40PM 40.6078 -83.2219 276° West 415 478 36,000  Level Indianapolis Center
11:41PM 40.6192 -83.3744 276° West 418 481 36,000  Level Indianapolis Center
11:42PM 40.6308 -83.5253 276° West 415 478 36,000 -60 Level Indianapolis Center
11:43PM 40.6411 -83.6756 275° West 412 474 35,900 -60 Descending Indianapolis Center
11:44PM 40.6525 -83.8225 276° West 404 465 35,900  Level Indianapolis Center
11:45PM 40.6628 -83.9714 275° West 405 466 35,900  Level Indianapolis Center
11:46PM 40.6744 -84.1486 275° West 412 474 36,000  Climbing Indianapolis Center
11:47PM 40.6847 -84.3000 275° West 413 475 36,000  Level Indianapolis Center
11:48PM 40.6958 -84.4522 276° West 415 478 36,000 -60 Level Indianapolis Center
11:49PM 40.7061 -84.6047 275° West 415 478 35,900  Descending Indianapolis Center
11:50PM 40.7111 -84.7022 274° West 415 478 36,000  Climbing Chicago Center
11:51PM 40.7214 -84.8542 275° West 416 479 36,000  Level Chicago Center
11:52PM 40.7322 -85.0397 274° West 421 484 36,000  Level Chicago Center
11:53PM 40.7417 -85.1953 275° West 425 489 36,000  Level Chicago Center
11:54PM 40.7500 -85.3514 274° West 424 488 36,000  Level Chicago Center
11:55PM 40.7589 -85.5053 274° West 423 487 36,000  Level Chicago Center
11:56PM 40.7678 -85.6603 274° West 422 486 36,000  Level Chicago Center
11:57PM 40.7764 -85.8150 274° West 423 487 36,000  Level Chicago Center
11:58PM 40.7844 -85.9700 274° West 424 488 36,000  Level Chicago Center
11:59PM 40.7933 -86.1250 274° West 423 487 36,000  Level Chicago Center
12:00AM 40.8006 -86.2778 274° West 419 482 36,000  Level Chicago Center
12:01AM 40.8075 -86.4281 274° West 412 474 36,000  Level Chicago Center
12:02AM 40.8136 -86.5803 273° West 414 476 36,000  Level Chicago Center
12:03AM 40.8236 -86.7608 274° West 418 481 36,000  Level Chicago Center
12:04AM 40.8297 -86.9167 273° West 422 486 36,000  Level Chicago Center
12:05AM 40.8372 -87.0706 274° West 421 484 36,000  Level Chicago Center
12:06AM 40.8431 -87.2247 273° West 422 486 36,000  Level Chicago Center
12:07AM 40.8503 -87.3817 274° West 426 490 36,000  Level Chicago Center
12:08AM 40.8558 -87.5383 273° West 427 491 36,000  Level Chicago Center
12:09AM 40.8617 -87.6947 273° West 428 493 36,000  Level Chicago Center
12:10AM 40.8678 -87.8497 273° West 423 487 36,000  Level Chicago Center
12:11AM 40.8742 -88.0050 273° West 423 487 36,000  Level Chicago Center
12:12AM 40.8786 -88.1592 272° West 420 483 36,000  Level Chicago Center
12:13AM 40.8850 -88.3131 273° West 419 482 36,000  Level Chicago Center
12:14AM 40.8897 -88.4650 272° West 415 478 36,000  Level Chicago Center
12:15AM 40.8950 -88.6481 272° West 416 479 36,000  Level Chicago Center
12:16AM 40.8994 -88.8019 272° West 418 481 36,000  Level Chicago Center
12:17AM 40.9031 -88.9453 272° West 423 487 36,000  Level Chicago Center
12:18AM 40.9072 -89.0981 272° West 419 482 36,000  Level Chicago Center
12:19AM 40.9106 -89.2519 272° West 420 483 36,000  Level Chicago Center
12:20AM 40.9144 -89.4044 272° West 418 481 36,000  Level Chicago Center
12:21AM 40.9178 -89.5708 272° West 421 484 36,000  Level Chicago Center
12:22AM 40.9211 -89.7242 272° West 420 483 36,000  Level Chicago Center
12:23AM 40.9242 -89.8797 272° West 424 488 36,000  Level Chicago Center
12:24AM 40.9275 -90.0350 272° West 425 489 36,000  Level Chicago Center
12:25AM 40.9297 -90.1925 271° West 428 493 36,000  Level Chicago Center
12:26AM 40.9319 -90.3619 271° West 423 487 36,000  Level Chicago Center
12:27AM 40.9342 -90.5192 271° West 427 491 36,000  Level Chicago Center
12:28AM 40.9356 -90.6769 271° West 431 496 36,000  Level Chicago Center
12:29AM 40.9372 -90.8331 271° West 428 493 36,000  Level Chicago Center
12:30AM 40.9383 -90.9892 271° West 426 490 36,000  Level Chicago Center
12:31AM 40.9392 -91.1450 270° West 424 488 36,000  Level Chicago Center
12:32AM 40.9414 -91.3161 271° West 426 490 36,000  Level Chicago Center
12:33AM 40.9411 -91.4700 270° West 423 487 36,000  Level Chicago Center
12:34AM 40.9422 -91.6242 271° West 423 487 36,000  Level Chicago Center
12:35AM 40.9433 -91.7786 271° West 425 489 36,000  Level Chicago Center
12:36AM 40.9431 -91.9325 270° West 425 489 36,000  Level Chicago Center
12:37AM 40.9439 -92.0861 270° West 423 487 36,000  Level Chicago Center
12:38AM 40.9431 -92.2669 270° West 417 480 36,000  Level Chicago Center
12:39AM 40.9428 -92.4206 270° West 422 486 36,000  Level Chicago Center
12:40AM 40.9406 -92.5719 269° West 419 482 36,000  Level Chicago Center
12:41AM 40.9408 -92.7239 270° West 419 482 36,000  Level Chicago Center
12:42AM 40.9394 -92.8767 269° West 421 484 36,000  Level Chicago Center
12:43AM 40.9386 -93.0261 270° West 414 476 36,000  Level Chicago Center
12:44AM 40.9369 -93.1753 269° West 410 472 36,000  Level Minneapolis Center
12:45AM 40.9372 -93.3239 270° West 408 470 36,000  Level Minneapolis Center
12:46AM 40.9356 -93.4750 269° West 412 474 36,000  Level Minneapolis Center
12:47AM 40.9311 -93.6281 268° West 417 480 36,000  Level Minneapolis Center
12:48AM 40.9281 -93.7797 269° West 418 481 36,000  Level Minneapolis Center
12:49AM 40.9253 -93.9617 269° West 417 480 36,000  Level Minneapolis Center
12:50AM 40.9253 -94.1133 270° West 418 481 36,000  Level Minneapolis Center
12:51AM 40.9208 -94.2678 268° West 423 487 36,000  Level Minneapolis Center
12:52AM 40.9192 -94.4225 269° West 426 490 36,000  Level Minneapolis Center
12:53AM 40.9147 -94.5842 268° West 424 488 36,000  Level Minneapolis Center
12:54AM 40.9106 -94.7397 268° West 424 488 36,000  Level Minneapolis Center
12:55AM 40.9053 -94.8953 267° West 423 487 36,000  Level Minneapolis Center
12:56AM 40.9028 -95.0486 269° West 420 483 36,000  Level Minneapolis Center
12:57AM 40.8989 -95.2028 268° West 419 482 36,000  Level Minneapolis Center
12:58AM 40.8939 -95.3558 268° West 417 480 36,000  Level Minneapolis Center
12:59AM 40.8906 -95.5094 268° West 417 480 36,000  Level Minneapolis Center
01:00AM 40.8853 -95.6636 267° West 417 480 36,000  Level Minneapolis Center
01:01AM 40.8811 -95.7858 267° West 415 478 36,000  Level Minneapolis Center
01:02AM 40.8753 -95.9708 268° West 417 480 36,000  Level Minneapolis Center
01:03AM 40.8689 -96.1256 267° West 418 481 36,000  Level Minneapolis Center
01:04AM 40.8633 -96.2808 267° West 419 482 36,000  Level Minneapolis Center
01:05AM 40.8589 -96.4042 267° West 420 483 36,000  Level Minneapolis Center
01:06AM 40.8522 -96.5906 267° West 421 484 36,000  Level Minneapolis Center
01:07AM 40.8456 -96.7433 267° West 418 481 36,000  Level Minneapolis Center
01:08AM 40.8397 -96.8997 267° West 421 484 36,000  Level Minneapolis Center
01:10AM 40.8336 -97.0533 267° West 421 484 36,000  Level Minneapolis Center
01:11AM 40.8256 -97.2064 266° West 420 483 36,000  Level Minneapolis Center
01:12AM 40.8189 -97.3600 267° West 419 482 36,000  Level Minneapolis Center
01:13AM 40.8108 -97.5178 266° West 415 478 36,000  Level Minneapolis Center
01:14AM 40.8047 -97.6714 267° West 418 481 36,000  Level Minneapolis Center
01:15AM 40.7969 -97.8258 266° West 420 483 36,000  Level Minneapolis Center
01:16AM 40.7881 -97.9811 266° West 422 486 36,000  Level Minneapolis Center
01:17AM 40.7806 -98.1372 266° West 425 489 36,100  Climbing Minneapolis Center
01:18AM 40.7717 -98.2925 266° West 423 487 36,000 -60 Descending Minneapolis Center
01:19AM 40.7636 -98.4492 266° West 425 489 36,000  Level Minneapolis Center
01:20AM 40.7544 -98.6053 266° West 424 488 36,000  Level Minneapolis Center
01:21AM 40.7450 -98.7614 265° West 424 488 36,000  Level Minneapolis Center
01:22AM 40.7367 -98.9158 266° West 420 483 36,000  Level Minneapolis Center
01:23AM 40.7275 -99.0708 266° West 421 484 36,000  Level Minneapolis Center
01:24AM 40.7197 -99.1942 265° West 420 483 36,000  Level Denver Center
01:25AM 40.7097 -99.3500 265° West 423 487 36,000  Level Denver Center
01:26AM 40.7000 -99.5031 265° West 418 481 36,000  Level Denver Center
01:27AM 40.6903 -99.6539 265° West 413 475 36,000  Level Denver Center
01:28AM 40.6800 -99.8036 265° West 411 473 36,000  Level Denver Center
01:29AM 40.6700 -99.9581 265° West 413 475 36,000  Level Denver Center
01:30AM 40.6578 -100.1261 265° West 413 475 36,000  Level Denver Center
01:31AM 40.6469 -100.2728 264° West 418 481 36,000  Level Denver Center
01:32AM 40.6367 -100.4194 265° West 418 481 36,000  Level Denver Center
01:33AM 40.6242 -100.5908 265° West 418 481 36,000  Level Denver Center
01:34AM 40.6128 -100.7383 264° West 418 481 36,000  Level Denver Center
01:35AM 40.6017 -100.8858 264° West 419 482 36,000  Level Denver Center
01:36AM 40.5903 -101.0339 264° West 421 484 36,000  Level Denver Center
01:37AM 40.5772 -101.2061 264° West 422 486 36,000  Level Denver Center
01:38AM 40.5653 -101.3525 264° West 421 484 36,000  Level Denver Center
01:39AM 40.5536 -101.4997 264° West 422 486 36,000  Level Denver Center
01:40AM 40.5417 -101.6475 264° West 424 488 36,000  Level Denver Center
01:41AM 40.5272 -101.8183 264° West 422 486 36,000  Level Denver Center
01:42AM 40.5147 -101.9647 264° West 422 486 36,000  Level Denver Center
01:43AM 40.5006 -102.1111 263° West 422 486 36,000  Level Denver Center
01:44AM 40.4864 -102.2814 264° West 422 486 36,000  Level Denver Center
01:45AM 40.4717 -102.4272 262° West 422 486 36,000  Level Denver Center
01:46AM 40.4550 -102.6214 264° West 420 483 36,000  Level Denver Center
01:47AM 40.4406 -102.7689 263° West 424 488 36,000  Level Denver Center
01:48AM 40.4278 -102.9142 263° West 420 483 36,000  Level Denver Center
01:49AM 40.4100 -103.0892 262° West 431 496 36,000  Level Denver Center
01:50AM 40.3956 -103.2361 263° West 427 491 36,000  Level Denver Center
01:51AM 40.3803 -103.3958 263° West 430 495 36,000  Level Denver Center
01:52AM 40.3644 -103.5456 262° West 433 498 36,000  Level Denver Center
01:53AM 40.3497 -103.6972 263° West 438 504 36,000  Level Denver Center
01:54AM 40.3314 -103.8714 262° West 445 512 36,000  Level Denver Center
01:55AM 40.3158 -104.0308 263° West 443 510 36,000  Level Denver Center
01:56AM 40.2983 -104.1872 262° West 437 503 36,000  Level Denver Center
01:57AM 40.2828 -104.3406 262° West 429 494 36,000  Level Denver Center
01:58AM 40.2658 -104.4975 262° West 433 498 36,000  Level Denver Center
01:59AM 40.2497 -104.6508 262° West 429 494 36,000  Level Denver Center
02:00AM 40.2311 -104.8158 262° West 427 491 36,000  Level Denver Center
02:01AM 40.2111 -104.9914 262° West 426 490 36,000  Level Denver Center
02:02AM 40.1939 -105.1436 262° West 427 491 36,000  Level Denver Center
02:03AM 40.1744 -105.3100 261° West 430 495 36,000  Level Denver Center
02:04AM 40.1564 -105.4639 261° West 430 495 36,000  Level Denver Center
02:05AM 40.1397 -105.6178 262° West 430 495 36,000  Level Denver Center
02:06AM 40.1211 -105.7742 261° West 435 501 36,000  Level Denver Center
02:07AM 40.1000 -105.9231 260° West 421 484 36,000  Level Denver Center
02:08AM 40.0811 -106.0769 261° West 427 491 36,000  Level Denver Center
02:09AM 40.0633 -106.2289 261° West 426 490 36,000  Level Denver Center
02:10AM 40.0447 -106.3794 261° West 423 487 36,000  Level Denver Center
02:11AM 40.0239 -106.5425 261° West 426 490 36,000  Level Denver Center
02:12AM 40.0053 -106.6878 261° West 425 489 36,000  Level Denver Center
02:13AM 39.9869 -106.8322 261° West 423 487 36,000  Level Denver Center
02:14AM 39.9675 -106.9767 260° West 423 487 36,000  Level Denver Center
02:15AM 39.9467 -107.1364 260° West 430 495 36,000  Level Denver Center
02:16AM 39.9264 -107.2931 260° West 425 489 36,000  Level Denver Center
02:17AM 39.9056 -107.4397 260° West 430 495 36,000  Level Denver Center
02:18AM 39.8825 -107.6069 260° West 423 487 36,000  Level Denver Center
02:19AM 39.8633 -107.7489 260° West 418 481 36,000 -60 Level Denver Center
02:20AM 39.8469 -107.8683 260° West 419 482 35,900  Descending Denver Center
02:21AM 39.8194 -108.0581 259° West 417 480 36,000  Climbing Denver Center
02:22AM 39.7986 -108.2033 259° West 427 491 36,000  Level Denver Center
02:23AM 39.7800 -108.3428 260° West 413 475 36,000  Level Denver Center
02:24AM 39.7558 -108.5053 259° West 410 472 36,000  Level Denver Center
02:25AM 39.7358 -108.6458 260° West 413 475 36,000  Level Denver Center
02:26AM 39.7161 -108.7850 260° West 418 481 36,000  Level Denver Center
02:27AM 39.6911 -108.9472 259° West 420 483 36,000  Level Denver Center
02:28AM 39.6694 -109.0889 259° West 421 484 36,000  Level Denver Center
02:29AM 39.6519 -109.2075 259° West 421 484 36,000  Level Salt Lake Center
02:30AM 39.6264 -109.3736 259° West 422 486 36,000  Level Salt Lake Center
02:31AM 39.6044 -109.5150 259° West 419 482 36,000  Level Salt Lake Center
02:32AM 39.5831 -109.6572 259° West 420 483 36,000  Level Salt Lake Center
02:33AM 39.5564 -109.8192 258° West 415 478 36,000  Level Salt Lake Center
02:34AM 39.5350 -109.9606 259° West 415 478 36,000  Level Salt Lake Center
02:35AM 39.5125 -110.0994 258° West 414 476 36,000  Level Salt Lake Center
02:36AM 39.4911 -110.2392 259° West 413 475 36,000  Level Salt Lake Center
02:37AM 39.4642 -110.3978 258° West 407 468 36,000  Level Salt Lake Center
02:38AM 39.4425 -110.5319 258° West 399 459 36,000  Level Salt Lake Center
02:39AM 39.4214 -110.6656 258° West 396 456 36,000  Level Salt Lake Center
02:40AM 39.3953 -110.8219 258° West 398 458 36,000  Level Salt Lake Center
02:41AM 39.3722 -110.9558 257° West 399 459 36,000  Level Salt Lake Center
02:42AM 39.3500 -111.0903 258° West 400 460 36,000  Level Salt Lake Center
02:43AM 39.3236 -111.2464 258° West 398 458 36,000  Level Salt Lake Center
02:44AM 39.3008 -111.3822 258° West 399 459 36,000  Level Salt Lake Center
02:45AM 39.2767 -111.5200 257° West 396 456 36,000  Level Salt Lake Center
02:46AM 39.2531 -111.6589 258° West 395 455 36,000  Level Salt Lake Center
02:47AM 39.2278 -111.8011 257° West 402 463 36,000  Level Salt Lake Center
02:48AM 39.2017 -111.9400 256° West 401 461 36,000  Level Salt Lake Center
02:49AM 39.1775 -112.0806 258° West 402 463 36,000  Level Salt Lake Center
02:50AM 39.1522 -112.2197 257° West 402 463 36,000  Level Salt Lake Center
02:51AM 39.1267 -112.3608 257° West 405 466 36,000  Level Salt Lake Center
02:52AM 39.1011 -112.5003 257° West 403 464 36,000  Level Salt Lake Center
02:53AM 39.0753 -112.6406 257° West 404 465 36,000  Level Salt Lake Center
02:54AM 39.0517 -112.7800 258° West 402 463 36,000  Level Salt Lake Center
02:55AM 39.0331 -112.9197 260° West 399 459 36,000  Level Salt Lake Center
02:57AM 39.0144 -113.0578 260° West 396 456 36,000  Level Salt Lake Center
02:58AM 38.9953 -113.1919 260° West 389 448 36,000  Level Salt Lake Center
02:59AM 38.9761 -113.3272 260° West 388 447 36,000  Level Salt Lake Center
03:00AM 38.9533 -113.4878 260° West 384 442 36,000  Level Salt Lake Center
03:01AM 38.9347 -113.6222 260° West 385 443 36,000  Level Salt Lake Center
03:02AM 38.9150 -113.7567 259° West 385 443 36,000  Level Salt Lake Center
03:03AM 38.8956 -113.8903 259° West 384 442 36,000  Level Salt Lake Center
03:04AM 38.8753 -114.0244 259° West 384 442 36,000  Level Salt Lake Center
03:05AM 38.8556 -114.1567 259° West 381 438 36,000  Level Salt Lake Center
03:06AM 38.8367 -114.2875 260° West 377 434 36,000  Level Salt Lake Center
03:07AM 38.8167 -114.4175 259° West 374 430 36,000  Level Salt Lake Center
03:08AM 38.7972 -114.5497 259° West 378 435 36,000  Level Salt Lake Center
03:09AM 38.7769 -114.6772 259° West 370 426 36,000  Level Salt Lake Center
03:10AM 38.7572 -114.8067 259° West 371 427 36,000  Level Salt Lake Center
03:11AM 38.7389 -114.9344 260° West 368 423 36,000  Level Salt Lake Center
03:12AM 38.7153 -115.0631 257° West 370 426 36,000  Level Salt Lake Center
03:13AM 38.6953 -115.1914 259° West 371 427 36,000  Level Salt Lake Center
03:14AM 38.6747 -115.3183 258° West 367 422 36,000  Level Salt Lake Center
03:15AM 38.6542 -115.4547 259° West 367 422 36,000  Level Salt Lake Center
03:16AM 38.6322 -115.5858 258° West 376 433 36,100  Climbing Salt Lake Center
03:17AM 38.6108 -115.7150 258° West 373 429 36,000 -60 Descending Salt Lake Center
03:18AM 38.5903 -115.8436 258° West 372 428 36,000  Level Salt Lake Center
03:19AM 38.5703 -115.9711 259° West 368 423 36,000  Level Salt Lake Center
03:20AM 38.5481 -116.0983 257° West 367 422 36,000  Level Salt Lake Center
03:21AM 38.5269 -116.2261 258° West 367 422 36,000  Level Salt Lake Center
03:22AM 38.5058 -116.3539 258° West 368 423 36,000  Level Salt Lake Center
03:23AM 38.4839 -116.4828 258° West 371 427 36,000  Level Salt Lake Center
03:24AM 38.4628 -116.6100 258° West 370 426 36,000  Level Oakland Center
03:25AM 38.4403 -116.7356 257° West 365 420 36,000  Level Oakland Center
03:26AM 38.4194 -116.8614 258° West 364 419 36,000  Level Oakland Center
03:27AM 38.3972 -116.9856 257° West 362 417 36,000  Level Oakland Center
03:28AM 38.3756 -117.1078 257° West 358 412 36,000  Level Salt Lake Center
03:29AM 38.3500 -117.2528 257° West 358 412 36,000  Level Oakland Center
03:30AM 38.3286 -117.3761 258° West 357 411 36,000  Level Oakland Center
03:31AM 38.3061 -117.4969 257° West 356 410 36,000  Level Oakland Center
03:32AM 38.2839 -117.6233 257° West 365 420 36,000  Level Oakland Center
03:33AM 38.2606 -117.7486 257° West 367 422 36,100  Climbing Oakland Center
03:34AM 38.2372 -117.8758 257° West 369 425 36,000 -60 Descending Oakland Center
03:35AM 38.2150 -118.0033 258° West 370 426 36,000  Level Oakland Center
03:36AM 38.1894 -118.1358 256° West 370 426 36,000  Level Oakland Center
03:37AM 38.1658 -118.2636 257° West 370 426 36,000  Level Oakland Center
03:38AM 38.1417 -118.3903 256° West 369 425 36,000  Level Oakland Center
03:39AM 38.1194 -118.5111 257° West 369 425 36,000  Level Oakland Center
03:40AM 38.0944 -118.6378 256° West 371 427 36,000  Level Oakland Center
03:41AM 38.0708 -118.7661 257° West 374 430 36,000  Level Oakland Center
03:42AM 38.0458 -118.8947 256° West 376 433 36,000  Level Oakland Center
03:43AM 38.0208 -119.0225 256° West 374 430 36,000  Level Oakland Center
03:44AM 37.9994 -119.1364 257° West 375 432 36,000  Level Oakland Center
03:45AM 37.9742 -119.2653 256° West 377 434 36,000  Level Oakland Center
03:46AM 37.9481 -119.3917 255° West 372 428 36,000  Level Oakland Center
03:47AM 37.9244 -119.5206 257° West 375 432 36,000  Level Oakland Center
03:48AM 37.8989 -119.6464 256° West 371 427 36,000  Level Oakland Center
03:49AM 37.8728 -119.7739 255° West 374 430 36,000 -300 Level Oakland Center
03:50AM 37.8461 -119.9011 255° West 373 429 35,500 -780 Descending Oakland Center
03:51AM 37.8208 -120.0294 256° West 375 432 34,500 -960 Descending Oakland Center
03:52AM 37.7939 -120.1592 255° West 381 438 33,600 -960 Descending Oakland Center
03:53AM 37.7658 -120.2911 255° West 388 447 32,600 -1,020 Descending Oakland Center
03:54AM 37.7431 -120.4247 258° West 390 449 31,600 -1,020 Descending Oakland Center
03:55AM 37.7197 -120.5578 258° West 389 448 30,600 -1,020 Descending Oakland Center
03:56AM 37.6972 -120.6925 258° West 391 450 29,600 -1,020 Descending Oakland Center
03:57AM 37.6725 -120.8286 257° West 394 453 28,600 -1,620 Descending Oakland Center
03:57AM 37.6500 -120.9000 248° West 410 472 27,400 -3,180 Descending Northern Cal TRACON
03:58AM 37.6333 -121.0333 261° West 403 464 24,300 -3,540 Descending Northern Cal TRACON
03:59AM 37.6167 -121.1667 261° West 398 458 20,400 -3,720 Descending Northern Cal TRACON
04:00AM 37.5833 -121.3000 253° West 398 458 16,900 -3,480 Descending Northern Cal TRACON
04:01AM 37.5667 -121.4333 261° West 379 436 13,500 -2,460 Descending Northern Cal TRACON
04:02AM 37.5333 -121.5667 253° West 354 407 12,000 -1,560 Descending Northern Cal TRACON
04:03AM 37.5167 -121.6833 260° West 322 371 10,300 -1,200 Descending Northern Cal TRACON
04:04AM 37.5000 -121.7667 256° West 271 312 9,500 -1,140 Descending Northern Cal TRACON
04:05AM 37.4833 -121.8667 258° West 273 314 8,100 -1,260 Descending Northern Cal TRACON
04:06AM 37.5000 -121.9667 282° West 269 310 7,000 -1,500 Descending Northern Cal TRACON
04:07AM 37.5167 -122.0500 284° West 264 304 5,100 -1,620 Descending Northern Cal TRACON
04:08AM 37.5500 -122.1333 297° West 245 282 3,800 -1,500 Descending Northern Cal TRACON
04:09AM 37.5544 -122.1656 280° West 244 281 2,800 -1,380 Descending Oakland Center
04:10AM 37.5742 -122.2311 291° West 222 255 1,700 -1,140 Descending Oakland Center